sensor_id;sensor_type;location;lat;lon;timestamp;pressure;altitude;pressure_sealevel;temperature
15575;BMP180;7888;46.748;8.102;2022-07-22T00:01:29;94515.00;;;26.90
15575;BMP180;7888;46.748;8.102;2022-07-22T00:03:55;94533.00;;;26.90
15575;BMP180;7888;46.748;8.102;2022-07-22T00:06:21;94522.00;;;26.80
15575;BMP180;7888;46.748;8.102;2022-07-22T00:08:47;94532.00;;;26.80
15575;BMP180;7888;46.748;8.102;2022-07-22T00:11:13;94527.00;;;26.80
15575;BMP180;7888;46.748;8.102;2022-07-22T00:13:38;94530.00;;;26.80
15575;BMP180;7888;46.748;8.102;2022-07-22T00:16:05;94527.00;;;26.70
15575;BMP180;7888;46.748;8.102;2022-07-22T00:18:31;94525.00;;;26.70
15575;BMP180;7888;46.748;8.102;2022-07-22T00:20:57;94529.00;;;26.70
15575;BMP180;7888;46.748;8.102;2022-07-22T00:23:23;94499.00;;;26.60
15575;BMP180;7888;46.748;8.102;2022-07-22T00:25:48;94517.00;;;26.60
15575;BMP180;7888;46.748;8.102;2022-07-22T00:28:14;94511.00;;;26.60
15575;BMP180;7888;46.748;8.102;2022-07-22T00:30:40;94521.00;;;26.60
15575;BMP180;7888;46.748;8.102;2022-07-22T00:33:06;94512.00;;;26.60
15575;BMP180;7888;46.748;8.102;2022-07-22T00:35:32;94497.00;;;26.50
15575;BMP180;7888;46.748;8.102;2022-07-22T00:37:57;94503.00;;;26.50
15575;BMP180;7888;46.748;8.102;2022-07-22T00:40:23;94506.00;;;26.50
15575;BMP180;7888;46.748;8.102;2022-07-22T00:42:49;94506.00;;;26.40
15575;BMP180;7888;46.748;8.102;2022-07-22T00:45:16;94502.00;;;26.40
15575;BMP180;7888;46.748;8.102;2022-07-22T00:47:42;94501.00;;;26.40
15575;BMP180;7888;46.748;8.102;2022-07-22T00:50:08;94499.00;;;26.40
15575;BMP180;7888;46.748;8.102;2022-07-22T00:52:35;94499.00;;;26.30
15575;BMP180;7888;46.748;8.102;2022-07-22T00:55:03;94502.00;;;26.30
15575;BMP180;7888;46.748;8.102;2022-07-22T00:57:29;94494.00;;;26.30
15575;BMP180;7888;46.748;8.102;2022-07-22T00:59:55;94488.00;;;26.20
15575;BMP180;7888;46.748;8.102;2022-07-22T01:02:22;94495.00;;;26.20
15575;BMP180;7888;46.748;8.102;2022-07-22T01:04:47;94491.00;;;26.20
15575;BMP180;7888;46.748;8.102;2022-07-22T01:07:13;94493.00;;;26.10
15575;BMP180;7888;46.748;8.102;2022-07-22T01:09:43;94489.00;;;26.10
15575;BMP180;7888;46.748;8.102;2022-07-22T01:12:09;94491.00;;;26.10
15575;BMP180;7888;46.748;8.102;2022-07-22T01:14:36;94490.00;;;26.10
15575;BMP180;7888;46.748;8.102;2022-07-22T01:17:03;94488.00;;;26.00
15575;BMP180;7888;46.748;8.102;2022-07-22T01:19:29;94465.00;;;26.00
15575;BMP180;7888;46.748;8.102;2022-07-22T01:21:54;94482.00;;;25.90
15575;BMP180;7888;46.748;8.102;2022-07-22T01:24:20;94479.00;;;25.90
15575;BMP180;7888;46.748;8.102;2022-07-22T01:26:46;94482.00;;;25.90
15575;BMP180;7888;46.748;8.102;2022-07-22T01:29:12;94483.00;;;25.80
15575;BMP180;7888;46.748;8.102;2022-07-22T01:31:38;94471.00;;;25.80
15575;BMP180;7888;46.748;8.102;2022-07-22T01:34:04;94480.00;;;25.80
15575;BMP180;7888;46.748;8.102;2022-07-22T01:36:30;94475.00;;;25.80
15575;BMP180;7888;46.748;8.102;2022-07-22T01:38:56;94471.00;;;25.80
15575;BMP180;7888;46.748;8.102;2022-07-22T01:41:22;94477.00;;;25.80
15575;BMP180;7888;46.748;8.102;2022-07-22T01:43:48;94478.00;;;25.70
15575;BMP180;7888;46.748;8.102;2022-07-22T01:46:14;94470.00;;;25.70
15575;BMP180;7888;46.748;8.102;2022-07-22T01:48:41;94471.00;;;25.70
15575;BMP180;7888;46.748;8.102;2022-07-22T01:51:06;94463.00;;;25.70
15575;BMP180;7888;46.748;8.102;2022-07-22T01:53:32;94465.00;;;25.60
15575;BMP180;7888;46.748;8.102;2022-07-22T01:55:58;94471.00;;;25.60
15575;BMP180;7888;46.748;8.102;2022-07-22T01:58:24;94461.00;;;25.60
15575;BMP180;7888;46.748;8.102;2022-07-22T02:00:50;94463.00;;;25.60
15575;BMP180;7888;46.748;8.102;2022-07-22T02:03:17;94450.00;;;25.60
15575;BMP180;7888;46.748;8.102;2022-07-22T02:05:43;94445.00;;;25.50
15575;BMP180;7888;46.748;8.102;2022-07-22T02:08:10;94453.00;;;25.50
15575;BMP180;7888;46.748;8.102;2022-07-22T02:10:37;94451.00;;;25.50
15575;BMP180;7888;46.748;8.102;2022-07-22T02:13:03;94449.00;;;25.50
15575;BMP180;7888;46.748;8.102;2022-07-22T02:15:29;94449.00;;;25.50
15575;BMP180;7888;46.748;8.102;2022-07-22T02:17:55;94439.00;;;25.40
15575;BMP180;7888;46.748;8.102;2022-07-22T02:20:22;94446.00;;;25.40
15575;BMP180;7888;46.748;8.102;2022-07-22T02:22:48;94434.00;;;25.40
15575;BMP180;7888;46.748;8.102;2022-07-22T02:25:14;94437.00;;;25.30
15575;BMP180;7888;46.748;8.102;2022-07-22T02:27:42;94434.00;;;25.30
15575;BMP180;7888;46.748;8.102;2022-07-22T02:30:09;94426.00;;;25.30
15575;BMP180;7888;46.748;8.102;2022-07-22T02:32:35;94428.00;;;25.30
15575;BMP180;7888;46.748;8.102;2022-07-22T02:35:02;94420.00;;;25.30
15575;BMP180;7888;46.748;8.102;2022-07-22T02:37:28;94414.00;;;25.20
15575;BMP180;7888;46.748;8.102;2022-07-22T02:39:54;94424.00;;;25.20
15575;BMP180;7888;46.748;8.102;2022-07-22T02:42:20;94414.00;;;25.20
15575;BMP180;7888;46.748;8.102;2022-07-22T02:44:45;94416.00;;;25.10
15575;BMP180;7888;46.748;8.102;2022-07-22T02:47:11;94425.00;;;25.10
15575;BMP180;7888;46.748;8.102;2022-07-22T02:49:37;94414.00;;;25.10
15575;BMP180;7888;46.748;8.102;2022-07-22T02:52:03;94423.00;;;25.10
15575;BMP180;7888;46.748;8.102;2022-07-22T02:54:29;94429.00;;;25.10
15575;BMP180;7888;46.748;8.102;2022-07-22T02:56:54;94424.00;;;25.00
15575;BMP180;7888;46.748;8.102;2022-07-22T02:59:20;94409.00;;;25.00
15575;BMP180;7888;46.748;8.102;2022-07-22T03:01:46;94417.00;;;25.00
15575;BMP180;7888;46.748;8.102;2022-07-22T03:04:12;94410.00;;;24.90
15575;BMP180;7888;46.748;8.102;2022-07-22T03:06:38;94422.00;;;25.00
15575;BMP180;7888;46.748;8.102;2022-07-22T03:09:03;94410.00;;;25.00
15575;BMP180;7888;46.748;8.102;2022-07-22T03:11:30;94413.00;;;25.00
15575;BMP180;7888;46.748;8.102;2022-07-22T03:13:56;94413.00;;;24.90
15575;BMP180;7888;46.748;8.102;2022-07-22T03:16:21;94406.00;;;24.90
15575;BMP180;7888;46.748;8.102;2022-07-22T03:18:47;94414.00;;;24.90
15575;BMP180;7888;46.748;8.102;2022-07-22T03:21:13;94412.00;;;24.90
15575;BMP180;7888;46.748;8.102;2022-07-22T03:23:39;94408.00;;;24.90
15575;BMP180;7888;46.748;8.102;2022-07-22T03:26:04;94415.00;;;24.80
15575;BMP180;7888;46.748;8.102;2022-07-22T03:28:30;94406.00;;;24.80
15575;BMP180;7888;46.748;8.102;2022-07-22T03:30:56;94409.00;;;24.80
15575;BMP180;7888;46.748;8.102;2022-07-22T03:33:22;94414.00;;;24.80
15575;BMP180;7888;46.748;8.102;2022-07-22T03:35:48;94411.00;;;24.80
15575;BMP180;7888;46.748;8.102;2022-07-22T03:38:14;94407.00;;;24.70
15575;BMP180;7888;46.748;8.102;2022-07-22T03:40:40;94413.00;;;24.70
15575;BMP180;7888;46.748;8.102;2022-07-22T03:43:05;94411.00;;;24.70
15575;BMP180;7888;46.748;8.102;2022-07-22T03:45:31;94406.00;;;24.70
15575;BMP180;7888;46.748;8.102;2022-07-22T03:47:57;94409.00;;;24.70
15575;BMP180;7888;46.748;8.102;2022-07-22T03:50:26;94410.00;;;24.70
15575;BMP180;7888;46.748;8.102;2022-07-22T03:52:52;94410.00;;;24.60
15575;BMP180;7888;46.748;8.102;2022-07-22T03:55:18;94414.00;;;24.60
15575;BMP180;7888;46.748;8.102;2022-07-22T03:57:44;94412.00;;;24.60
15575;BMP180;7888;46.748;8.102;2022-07-22T04:00:10;94412.00;;;24.60
15575;BMP180;7888;46.748;8.102;2022-07-22T04:02:36;94415.00;;;24.50
15575;BMP180;7888;46.748;8.102;2022-07-22T04:05:02;94405.00;;;24.50
15575;BMP180;7888;46.748;8.102;2022-07-22T04:07:27;94401.00;;;24.50
15575;BMP180;7888;46.748;8.102;2022-07-22T04:09:53;94397.00;;;24.50
15575;BMP180;7888;46.748;8.102;2022-07-22T04:12:37;94411.00;;;24.40
15575;BMP180;7888;46.748;8.102;2022-07-22T04:15:05;94415.00;;;24.50
15575;BMP180;7888;46.748;8.102;2022-07-22T04:17:33;94414.00;;;24.40
15575;BMP180;7888;46.748;8.102;2022-07-22T04:19:59;94395.00;;;24.40
15575;BMP180;7888;46.748;8.102;2022-07-22T04:22:27;94407.00;;;24.40
15575;BMP180;7888;46.748;8.102;2022-07-22T04:24:53;94400.00;;;24.40
15575;BMP180;7888;46.748;8.102;2022-07-22T04:27:19;94416.00;;;24.40
15575;BMP180;7888;46.748;8.102;2022-07-22T04:29:45;94411.00;;;24.40
15575;BMP180;7888;46.748;8.102;2022-07-22T04:32:10;94410.00;;;24.40
15575;BMP180;7888;46.748;8.102;2022-07-22T04:34:36;94414.00;;;24.30
15575;BMP180;7888;46.748;8.102;2022-07-22T04:37:02;94418.00;;;24.30
15575;BMP180;7888;46.748;8.102;2022-07-22T04:39:28;94411.00;;;24.30
15575;BMP180;7888;46.748;8.102;2022-07-22T04:41:54;94405.00;;;24.20
15575;BMP180;7888;46.748;8.102;2022-07-22T04:44:20;94405.00;;;24.30
15575;BMP180;7888;46.748;8.102;2022-07-22T04:46:45;94403.00;;;24.30
15575;BMP180;7888;46.748;8.102;2022-07-22T04:49:12;94421.00;;;24.30
15575;BMP180;7888;46.748;8.102;2022-07-22T04:51:38;94409.00;;;24.30
15575;BMP180;7888;46.748;8.102;2022-07-22T04:54:04;94416.00;;;24.30
15575;BMP180;7888;46.748;8.102;2022-07-22T04:56:29;94412.00;;;24.30
15575;BMP180;7888;46.748;8.102;2022-07-22T04:58:55;94409.00;;;24.30
15575;BMP180;7888;46.748;8.102;2022-07-22T05:01:21;94414.00;;;24.30
15575;BMP180;7888;46.748;8.102;2022-07-22T05:03:47;94403.00;;;24.30
15575;BMP180;7888;46.748;8.102;2022-07-22T05:06:13;94401.00;;;24.30
15575;BMP180;7888;46.748;8.102;2022-07-22T05:08:39;94411.00;;;24.30
15575;BMP180;7888;46.748;8.102;2022-07-22T05:11:04;94400.00;;;24.30
15575;BMP180;7888;46.748;8.102;2022-07-22T05:13:30;94406.00;;;24.30
15575;BMP180;7888;46.748;8.102;2022-07-22T05:15:56;94400.00;;;24.30
15575;BMP180;7888;46.748;8.102;2022-07-22T05:18:22;94401.00;;;24.40
15575;BMP180;7888;46.748;8.102;2022-07-22T05:20:48;94400.00;;;24.40
15575;BMP180;7888;46.748;8.102;2022-07-22T05:23:14;94404.00;;;24.40
15575;BMP180;7888;46.748;8.102;2022-07-22T05:25:40;94396.00;;;24.40
15575;BMP180;7888;46.748;8.102;2022-07-22T05:28:05;94388.00;;;24.40
15575;BMP180;7888;46.748;8.102;2022-07-22T05:30:31;94392.00;;;24.40
15575;BMP180;7888;46.748;8.102;2022-07-22T05:32:57;94397.00;;;24.40
15575;BMP180;7888;46.748;8.102;2022-07-22T05:35:23;94393.00;;;24.40
15575;BMP180;7888;46.748;8.102;2022-07-22T05:37:49;94383.00;;;24.40
15575;BMP180;7888;46.748;8.102;2022-07-22T05:40:15;94392.00;;;24.50
15575;BMP180;7888;46.748;8.102;2022-07-22T05:42:40;94389.00;;;24.50
15575;BMP180;7888;46.748;8.102;2022-07-22T05:45:07;94388.00;;;24.50
15575;BMP180;7888;46.748;8.102;2022-07-22T05:47:33;94381.00;;;24.50
15575;BMP180;7888;46.748;8.102;2022-07-22T05:49:58;94382.00;;;24.60
15575;BMP180;7888;46.748;8.102;2022-07-22T05:52:24;94384.00;;;24.60
15575;BMP180;7888;46.748;8.102;2022-07-22T05:54:50;94388.00;;;24.60
15575;BMP180;7888;46.748;8.102;2022-07-22T05:57:16;94371.00;;;24.70
15575;BMP180;7888;46.748;8.102;2022-07-22T05:59:42;94379.00;;;24.70
15575;BMP180;7888;46.748;8.102;2022-07-22T06:02:08;94381.00;;;24.80
15575;BMP180;7888;46.748;8.102;2022-07-22T06:04:34;94382.00;;;24.80
15575;BMP180;7888;46.748;8.102;2022-07-22T06:06:59;94384.00;;;24.90
15575;BMP180;7888;46.748;8.102;2022-07-22T06:09:26;94380.00;;;24.90
15575;BMP180;7888;46.748;8.102;2022-07-22T06:11:51;94380.00;;;25.00
15575;BMP180;7888;46.748;8.102;2022-07-22T06:14:17;94383.00;;;25.00
15575;BMP180;7888;46.748;8.102;2022-07-22T06:16:43;94385.00;;;25.10
15575;BMP180;7888;46.748;8.102;2022-07-22T06:19:09;94379.00;;;25.20
15575;BMP180;7888;46.748;8.102;2022-07-22T06:21:35;94377.00;;;25.20
15575;BMP180;7888;46.748;8.102;2022-07-22T06:24:02;94379.00;;;25.30
15575;BMP180;7888;46.748;8.102;2022-07-22T06:26:27;94382.00;;;25.40
15575;BMP180;7888;46.748;8.102;2022-07-22T06:28:53;94392.00;;;25.50
15575;BMP180;7888;46.748;8.102;2022-07-22T06:31:19;94377.00;;;25.60
15575;BMP180;7888;46.748;8.102;2022-07-22T06:33:45;94381.00;;;25.70
15575;BMP180;7888;46.748;8.102;2022-07-22T06:36:11;94377.00;;;25.80
15575;BMP180;7888;46.748;8.102;2022-07-22T06:38:37;94376.00;;;25.90
15575;BMP180;7888;46.748;8.102;2022-07-22T06:41:02;94379.00;;;26.00
15575;BMP180;7888;46.748;8.102;2022-07-22T06:43:28;94372.00;;;26.10
15575;BMP180;7888;46.748;8.102;2022-07-22T06:45:54;94362.00;;;26.20
15575;BMP180;7888;46.748;8.102;2022-07-22T06:48:20;94347.00;;;26.20
15575;BMP180;7888;46.748;8.102;2022-07-22T06:50:46;94366.00;;;26.30
15575;BMP180;7888;46.748;8.102;2022-07-22T06:53:12;94367.00;;;26.40
15575;BMP180;7888;46.748;8.102;2022-07-22T06:55:37;94357.00;;;26.50
15575;BMP180;7888;46.748;8.102;2022-07-22T06:58:03;94365.00;;;26.50
15575;BMP180;7888;46.748;8.102;2022-07-22T07:00:29;94367.00;;;26.60
15575;BMP180;7888;46.748;8.102;2022-07-22T07:02:59;94366.00;;;26.70
15575;BMP180;7888;46.748;8.102;2022-07-22T07:05:25;94361.00;;;26.80
15575;BMP180;7888;46.748;8.102;2022-07-22T07:07:53;94356.00;;;26.80
15575;BMP180;7888;46.748;8.102;2022-07-22T07:10:19;94350.00;;;26.90
15575;BMP180;7888;46.748;8.102;2022-07-22T07:12:45;94354.00;;;27.00
15575;BMP180;7888;46.748;8.102;2022-07-22T07:15:11;94353.00;;;27.10
15575;BMP180;7888;46.748;8.102;2022-07-22T07:17:37;94338.00;;;27.20
15575;BMP180;7888;46.748;8.102;2022-07-22T07:20:05;94347.00;;;27.30
15575;BMP180;7888;46.748;8.102;2022-07-22T07:22:32;94351.00;;;27.40
15575;BMP180;7888;46.748;8.102;2022-07-22T07:25:06;94350.00;;;27.50
15575;BMP180;7888;46.748;8.102;2022-07-22T07:27:32;94355.00;;;27.60
15575;BMP180;7888;46.748;8.102;2022-07-22T07:29:58;94343.00;;;27.70
15575;BMP180;7888;46.748;8.102;2022-07-22T07:32:24;94346.00;;;27.80
15575;BMP180;7888;46.748;8.102;2022-07-22T07:34:50;94347.00;;;27.90
15575;BMP180;7888;46.748;8.102;2022-07-22T07:37:16;94352.00;;;28.00
15575;BMP180;7888;46.748;8.102;2022-07-22T07:39:42;94338.00;;;28.10
15575;BMP180;7888;46.748;8.102;2022-07-22T07:42:08;94343.00;;;28.20
15575;BMP180;7888;46.748;8.102;2022-07-22T07:44:34;94341.00;;;28.30
15575;BMP180;7888;46.748;8.102;2022-07-22T07:47:00;94339.00;;;28.40
15575;BMP180;7888;46.748;8.102;2022-07-22T07:49:25;94333.00;;;28.50
15575;BMP180;7888;46.748;8.102;2022-07-22T07:51:52;94335.00;;;28.60
15575;BMP180;7888;46.748;8.102;2022-07-22T07:54:18;94335.00;;;28.70
15575;BMP180;7888;46.748;8.102;2022-07-22T07:56:44;94330.00;;;28.70
15575;BMP180;7888;46.748;8.102;2022-07-22T07:59:10;94330.00;;;28.80
15575;BMP180;7888;46.748;8.102;2022-07-22T08:01:36;94328.00;;;28.90
15575;BMP180;7888;46.748;8.102;2022-07-22T08:04:02;94328.00;;;29.00
15575;BMP180;7888;46.748;8.102;2022-07-22T08:06:28;94329.00;;;29.10
15575;BMP180;7888;46.748;8.102;2022-07-22T08:08:53;94326.00;;;29.20
15575;BMP180;7888;46.748;8.102;2022-07-22T08:11:19;94320.00;;;29.20
15575;BMP180;7888;46.748;8.102;2022-07-22T08:13:45;94327.00;;;29.30
15575;BMP180;7888;46.748;8.102;2022-07-22T08:16:11;94322.00;;;29.40
15575;BMP180;7888;46.748;8.102;2022-07-22T08:18:37;94325.00;;;29.50
15575;BMP180;7888;46.748;8.102;2022-07-22T08:21:03;94315.00;;;29.50
15575;BMP180;7888;46.748;8.102;2022-07-22T08:23:29;94316.00;;;29.60
15575;BMP180;7888;46.748;8.102;2022-07-22T08:25:55;94316.00;;;29.70
15575;BMP180;7888;46.748;8.102;2022-07-22T08:28:21;94312.00;;;29.60
15575;BMP180;7888;46.748;8.102;2022-07-22T08:30:46;94314.00;;;29.70
15575;BMP180;7888;46.748;8.102;2022-07-22T08:33:12;94313.00;;;29.80
15575;BMP180;7888;46.748;8.102;2022-07-22T08:35:38;94309.00;;;29.90
15575;BMP180;7888;46.748;8.102;2022-07-22T08:38:04;94308.00;;;29.90
15575;BMP180;7888;46.748;8.102;2022-07-22T08:40:30;94306.00;;;30.00
15575;BMP180;7888;46.748;8.102;2022-07-22T08:42:56;94308.00;;;30.10
15575;BMP180;7888;46.748;8.102;2022-07-22T08:45:23;94309.00;;;30.20
15575;BMP180;7888;46.748;8.102;2022-07-22T08:47:51;94296.00;;;30.20
15575;BMP180;7888;46.748;8.102;2022-07-22T08:50:17;94298.00;;;30.30
15575;BMP180;7888;46.748;8.102;2022-07-22T08:52:44;94309.00;;;30.40
15575;BMP180;7888;46.748;8.102;2022-07-22T08:55:10;94308.00;;;30.50
15575;BMP180;7888;46.748;8.102;2022-07-22T08:57:36;94307.00;;;30.60
15575;BMP180;7888;46.748;8.102;2022-07-22T09:00:11;94307.00;;;30.60
15575;BMP180;7888;46.748;8.102;2022-07-22T09:02:39;94297.00;;;30.70
15575;BMP180;7888;46.748;8.102;2022-07-22T09:05:09;94311.00;;;30.70
15575;BMP180;7888;46.748;8.102;2022-07-22T09:07:41;94314.00;;;30.80
15575;BMP180;7888;46.748;8.102;2022-07-22T09:10:14;94315.00;;;30.80
15575;BMP180;7888;46.748;8.102;2022-07-22T09:12:55;94300.00;;;30.80
15575;BMP180;7888;46.748;8.102;2022-07-22T09:15:57;94317.00;;;30.80
15575;BMP180;7888;46.748;8.102;2022-07-22T09:18:23;94333.00;;;30.90
15575;BMP180;7888;46.748;8.102;2022-07-22T09:20:58;94324.00;;;30.90
15575;BMP180;7888;46.748;8.102;2022-07-22T09:23:25;94327.00;;;31.00
15575;BMP180;7888;46.748;8.102;2022-07-22T09:25:51;94312.00;;;31.00
15575;BMP180;7888;46.748;8.102;2022-07-22T09:28:22;94325.00;;;31.10
15575;BMP180;7888;46.748;8.102;2022-07-22T09:30:55;94327.00;;;31.10
15575;BMP180;7888;46.748;8.102;2022-07-22T09:33:22;94315.00;;;31.30
15575;BMP180;7888;46.748;8.102;2022-07-22T09:35:49;94329.00;;;31.40
15575;BMP180;7888;46.748;8.102;2022-07-22T09:38:18;94333.00;;;31.40
15575;BMP180;7888;46.748;8.102;2022-07-22T09:40:48;94337.00;;;31.50
15575;BMP180;7888;46.748;8.102;2022-07-22T09:43:20;94346.00;;;31.50
15575;BMP180;7888;46.748;8.102;2022-07-22T09:45:52;94340.00;;;31.60
15575;BMP180;7888;46.748;8.102;2022-07-22T09:48:26;94337.00;;;31.80
15575;BMP180;7888;46.748;8.102;2022-07-22T09:50:55;94345.00;;;31.90
15575;BMP180;7888;46.748;8.102;2022-07-22T09:53:26;94338.00;;;32.10
15575;BMP180;7888;46.748;8.102;2022-07-22T09:56:00;94346.00;;;32.20
15575;BMP180;7888;46.748;8.102;2022-07-22T09:58:27;94338.00;;;32.50
15575;BMP180;7888;46.748;8.102;2022-07-22T10:01:02;94349.00;;;32.60
15575;BMP180;7888;46.748;8.102;2022-07-22T10:03:32;94343.00;;;32.80
15575;BMP180;7888;46.748;8.102;2022-07-22T10:06:01;94341.00;;;32.90
15575;BMP180;7888;46.748;8.102;2022-07-22T10:08:30;94333.00;;;32.90
15575;BMP180;7888;46.748;8.102;2022-07-22T10:11:02;94339.00;;;33.00
15575;BMP180;7888;46.748;8.102;2022-07-22T10:13:29;94338.00;;;33.10
15575;BMP180;7888;46.748;8.102;2022-07-22T10:15:56;94335.00;;;33.10
15575;BMP180;7888;46.748;8.102;2022-07-22T10:18:24;94342.00;;;33.10
15575;BMP180;7888;46.748;8.102;2022-07-22T10:21:06;94342.00;;;33.10
15575;BMP180;7888;46.748;8.102;2022-07-22T10:23:32;94341.00;;;33.20
15575;BMP180;7888;46.748;8.102;2022-07-22T10:26:02;94340.00;;;33.20
15575;BMP180;7888;46.748;8.102;2022-07-22T10:28:34;94328.00;;;33.20
15575;BMP180;7888;46.748;8.102;2022-07-22T10:31:22;94337.00;;;33.20
15575;BMP180;7888;46.748;8.102;2022-07-22T10:33:56;94333.00;;;33.40
15575;BMP180;7888;46.748;8.102;2022-07-22T10:36:37;94334.00;;;33.40
15575;BMP180;7888;46.748;8.102;2022-07-22T10:39:10;94322.00;;;33.60
15575;BMP180;7888;46.748;8.102;2022-07-22T10:41:42;94333.00;;;33.70
15575;BMP180;7888;46.748;8.102;2022-07-22T10:44:09;94328.00;;;33.90
15575;BMP180;7888;46.748;8.102;2022-07-22T10:46:49;94340.00;;;34.00
15575;BMP180;7888;46.748;8.102;2022-07-22T10:49:24;94330.00;;;34.10
15575;BMP180;7888;46.748;8.102;2022-07-22T10:52:11;94336.00;;;34.20
15575;BMP180;7888;46.748;8.102;2022-07-22T10:55:21;94332.00;;;34.20
15575;BMP180;7888;46.748;8.102;2022-07-22T10:57:48;94322.00;;;34.30
15575;BMP180;7888;46.748;8.102;2022-07-22T11:00:17;94331.00;;;34.30
15575;BMP180;7888;46.748;8.102;2022-07-22T11:02:43;94319.00;;;34.30
15575;BMP180;7888;46.748;8.102;2022-07-22T11:05:09;94322.00;;;34.30
15575;BMP180;7888;46.748;8.102;2022-07-22T11:07:46;94316.00;;;34.30
15575;BMP180;7888;46.748;8.102;2022-07-22T11:10:18;94307.00;;;34.30
15575;BMP180;7888;46.748;8.102;2022-07-22T11:12:47;94314.00;;;34.40
15575;BMP180;7888;46.748;8.102;2022-07-22T11:15:13;94314.00;;;34.40
15575;BMP180;7888;46.748;8.102;2022-07-22T11:17:40;94317.00;;;34.40
15575;BMP180;7888;46.748;8.102;2022-07-22T11:20:09;94315.00;;;34.40
15575;BMP180;7888;46.748;8.102;2022-07-22T11:22:37;94299.00;;;34.50
15575;BMP180;7888;46.748;8.102;2022-07-22T11:25:09;94307.00;;;34.40
15575;BMP180;7888;46.748;8.102;2022-07-22T11:27:36;94301.00;;;34.50
15575;BMP180;7888;46.748;8.102;2022-07-22T11:30:05;94303.00;;;34.50
15575;BMP180;7888;46.748;8.102;2022-07-22T11:32:32;94294.00;;;34.60
15575;BMP180;7888;46.748;8.102;2022-07-22T11:34:59;94290.00;;;34.60
15575;BMP180;7888;46.748;8.102;2022-07-22T11:37:27;94303.00;;;34.70
15575;BMP180;7888;46.748;8.102;2022-07-22T11:40:04;94298.00;;;34.60
15575;BMP180;7888;46.748;8.102;2022-07-22T11:42:30;94288.00;;;34.80
15575;BMP180;7888;46.748;8.102;2022-07-22T11:44:56;94291.00;;;34.80
15575;BMP180;7888;46.748;8.102;2022-07-22T11:47:22;94288.00;;;34.90
15575;BMP180;7888;46.748;8.102;2022-07-22T11:49:48;94289.00;;;35.00
15575;BMP180;7888;46.748;8.102;2022-07-22T11:52:14;94288.00;;;35.00
15575;BMP180;7888;46.748;8.102;2022-07-22T11:54:41;94288.00;;;35.00
15575;BMP180;7888;46.748;8.102;2022-07-22T11:57:08;94281.00;;;35.10
15575;BMP180;7888;46.748;8.102;2022-07-22T11:59:35;94273.00;;;35.20
15575;BMP180;7888;46.748;8.102;2022-07-22T12:02:03;94271.00;;;35.30
15575;BMP180;7888;46.748;8.102;2022-07-22T12:04:31;94267.00;;;35.40
15575;BMP180;7888;46.748;8.102;2022-07-22T12:07:00;94259.00;;;35.50
15575;BMP180;7888;46.748;8.102;2022-07-22T12:09:33;94256.00;;;35.50
15575;BMP180;7888;46.748;8.102;2022-07-22T12:12:00;94245.00;;;35.60
15575;BMP180;7888;46.748;8.102;2022-07-22T12:14:32;94256.00;;;35.70
15575;BMP180;7888;46.748;8.102;2022-07-22T12:17:03;94252.00;;;35.70
15575;BMP180;7888;46.748;8.102;2022-07-22T12:19:32;94251.00;;;35.80
15575;BMP180;7888;46.748;8.102;2022-07-22T12:22:10;94261.00;;;35.80
15575;BMP180;7888;46.748;8.102;2022-07-22T12:24:43;94260.00;;;35.80
15575;BMP180;7888;46.748;8.102;2022-07-22T12:27:11;94245.00;;;35.90
15575;BMP180;7888;46.748;8.102;2022-07-22T12:32:10;94239.00;;;35.90
15575;BMP180;7888;46.748;8.102;2022-07-22T12:34:43;94243.00;;;35.90
15575;BMP180;7888;46.748;8.102;2022-07-22T12:37:27;94239.00;;;36.00
15575;BMP180;7888;46.748;8.102;2022-07-22T12:40:10;94242.00;;;36.00
15575;BMP180;7888;46.748;8.102;2022-07-22T12:42:47;94231.00;;;36.10
15575;BMP180;7888;46.748;8.102;2022-07-22T12:45:27;94243.00;;;36.10
15575;BMP180;7888;46.748;8.102;2022-07-22T12:48:06;94232.00;;;36.10
15575;BMP180;7888;46.748;8.102;2022-07-22T12:50:42;94232.00;;;36.20
15575;BMP180;7888;46.748;8.102;2022-07-22T12:53:14;94235.00;;;36.30
15575;BMP180;7888;46.748;8.102;2022-07-22T12:55:46;94233.00;;;36.40
15575;BMP180;7888;46.748;8.102;2022-07-22T12:58:14;94234.00;;;36.50
15575;BMP180;7888;46.748;8.102;2022-07-22T13:00:47;94228.00;;;36.50
15575;BMP180;7888;46.748;8.102;2022-07-22T13:03:13;94239.00;;;36.60
15575;BMP180;7888;46.748;8.102;2022-07-22T13:05:39;94238.00;;;36.70
15575;BMP180;7888;46.748;8.102;2022-07-22T13:08:06;94241.00;;;36.70
15575;BMP180;7888;46.748;8.102;2022-07-22T13:10:33;94234.00;;;36.80
15575;BMP180;7888;46.748;8.102;2022-07-22T13:12:59;94240.00;;;36.80
15575;BMP180;7888;46.748;8.102;2022-07-22T13:15:25;94242.00;;;36.90
15575;BMP180;7888;46.748;8.102;2022-07-22T13:17:51;94238.00;;;36.90
15575;BMP180;7888;46.748;8.102;2022-07-22T13:20:18;94228.00;;;36.90
15575;BMP180;7888;46.748;8.102;2022-07-22T13:22:45;94234.00;;;37.10
15575;BMP180;7888;46.748;8.102;2022-07-22T13:25:11;94226.00;;;37.20
15575;BMP180;7888;46.748;8.102;2022-07-22T13:27:37;94228.00;;;37.40
15575;BMP180;7888;46.748;8.102;2022-07-22T13:30:05;94234.00;;;37.50
15575;BMP180;7888;46.748;8.102;2022-07-22T13:32:31;94210.00;;;37.60
15575;BMP180;7888;46.748;8.102;2022-07-22T13:34:57;94224.00;;;37.70
15575;BMP180;7888;46.748;8.102;2022-07-22T13:37:23;94228.00;;;37.70
15575;BMP180;7888;46.748;8.102;2022-07-22T13:39:49;94225.00;;;37.70
15575;BMP180;7888;46.748;8.102;2022-07-22T13:42:16;94231.00;;;37.70
15575;BMP180;7888;46.748;8.102;2022-07-22T13:44:47;94219.00;;;37.60
15575;BMP180;7888;46.748;8.102;2022-07-22T13:47:14;94211.00;;;37.60
15575;BMP180;7888;46.748;8.102;2022-07-22T13:49:40;94231.00;;;37.60
15575;BMP180;7888;46.748;8.102;2022-07-22T13:52:06;94226.00;;;37.50
15575;BMP180;7888;46.748;8.102;2022-07-22T13:54:33;94228.00;;;37.50
15575;BMP180;7888;46.748;8.102;2022-07-22T13:57:00;94214.00;;;37.60
15575;BMP180;7888;46.748;8.102;2022-07-22T13:59:27;94214.00;;;37.60
15575;BMP180;7888;46.748;8.102;2022-07-22T14:01:53;94226.00;;;37.60
15575;BMP180;7888;46.748;8.102;2022-07-22T14:04:19;94223.00;;;37.50
15575;BMP180;7888;46.748;8.102;2022-07-22T14:06:45;94226.00;;;37.50
15575;BMP180;7888;46.748;8.102;2022-07-22T14:09:11;94220.00;;;37.50
15575;BMP180;7888;46.748;8.102;2022-07-22T14:11:37;94218.00;;;37.50
15575;BMP180;7888;46.748;8.102;2022-07-22T14:14:02;94220.00;;;37.50
15575;BMP180;7888;46.748;8.102;2022-07-22T14:16:28;94214.00;;;37.50
15575;BMP180;7888;46.748;8.102;2022-07-22T14:19:07;94210.00;;;37.50
15575;BMP180;7888;46.748;8.102;2022-07-22T14:21:34;94223.00;;;37.50
15575;BMP180;7888;46.748;8.102;2022-07-22T14:24:02;94216.00;;;37.50
15575;BMP180;7888;46.748;8.102;2022-07-22T14:26:29;94203.00;;;37.60